Time;durP1;ratioP1;P1;durP2;ratioP2;P2;SDS_P1;SDS_P2;PMS_P1;PMS_P2;Temp;Humidity;BMP_temperature;BMP_pressure;BME280_temperature;BME280_humidity;BME280_pressure;Samples;Min_cycle;Max_cycle;Signal;HPM_P1;HPM_P2
2022/06/04 00:02:08;;;;;;;3.20;2.87;;;;;;;15.86;59.99;100610.66;5101788;28;20500;-64
2022/06/04 00:04:35;;;;;;;5.70;2.90;;;;;;;16.00;59.99;100612.69;5102410;28;20569;-64
2022/06/04 00:07:02;;;;;;;7.60;3.10;;;;;;;15.79;60.54;100614.00;5101984;28;20482;-64
2022/06/04 00:09:28;;;;;;;4.33;3.07;;;;;;;15.96;60.33;100614.88;5102560;28;20427;-64
2022/06/04 00:17:25;;;;;;;6.90;3.30;;;;;;;15.44;62.20;100607.81;5101716;28;20477;-64
2022/06/04 00:19:52;;;;;;;7.70;3.13;;;;;;;15.45;62.57;100600.59;5102643;28;20443;-64
2022/06/04 00:22:19;;;;;;;3.80;3.27;;;;;;;15.46;62.81;100591.50;5101852;28;20540;-64
2022/06/04 00:24:46;;;;;;;7.37;3.63;;;;;;;15.44;62.79;100591.66;5102798;28;20435;-64
2022/06/04 00:27:17;;;;;;;3.77;3.37;;;;;;;15.21;63.50;100591.41;5101508;28;20483;-64
2022/06/04 00:29:45;;;;;;;6.20;2.70;;;;;;;15.32;63.24;100587.56;5102042;28;20465;-64
2022/06/04 00:32:12;;;;;;;3.57;3.27;;;;;;;15.14;63.74;100592.25;5101134;28;20482;-63
2022/06/04 00:34:39;;;;;;;3.63;3.00;;;;;;;15.33;63.16;100596.50;5102366;28;20446;-64
2022/06/04 00:37:06;;;;;;;5.80;4.10;;;;;;;15.38;63.16;100603.09;5100459;28;21067;-64
2022/06/04 00:39:33;;;;;;;3.67;3.20;;;;;;;15.39;63.54;100599.38;5102276;28;20963;-64
2022/06/04 00:42:05;;;;;;;5.30;3.50;;;;;;;15.40;63.59;100601.06;5101429;28;20470;-64
2022/06/04 00:45:29;;;;;;;5.17;3.57;;;;;;;15.33;63.79;100602.75;5100954;28;20443;-64
2022/06/04 00:47:58;;;;;;;5.30;3.47;;;;;;;15.20;64.05;100600.47;5101087;28;20467;-64
2022/06/04 00:50:26;;;;;;;3.60;3.30;;;;;;;14.99;64.82;100605.44;5102029;28;20443;-64
2022/06/04 00:52:53;;;;;;;5.40;3.30;;;;;;;15.07;64.42;100608.19;5101434;28;20878;-64
2022/06/04 00:55:20;;;;;;;3.13;2.83;;;;;;;15.16;64.73;100604.53;5101188;28;20516;-63
2022/06/04 00:58:02;;;;;;;6.97;3.80;;;;;;;14.98;64.92;100609.13;5100927;28;20895;-63
2022/06/04 01:00:32;;;;;;;5.70;3.70;;;;;;;15.00;65.25;100621.44;5101394;28;20961;-64
2022/06/04 01:03:13;;;;;;;7.07;3.90;;;;;;;14.73;65.89;100609.00;5100475;28;20455;-63
2022/06/04 01:06:03;;;;;;;5.60;4.30;;;;;;;14.67;66.54;100599.72;5101240;28;20524;-63
2022/06/04 01:08:43;;;;;;;5.03;4.23;;;;;;;14.60;66.95;100590.59;5101053;28;20451;-63
2022/06/04 01:11:19;;;;;;;6.93;4.07;;;;;;;14.63;66.83;100597.50;5103515;28;20474;-63
2022/06/04 01:14:01;;;;;;;5.50;4.40;;;;;;;14.67;66.81;100602.41;5108584;28;20456;-63
2022/06/04 01:16:34;;;;;;;7.30;4.23;;;;;;;14.63;67.00;100602.88;5100160;28;20486;-64
2022/06/04 01:19:14;;;;;;;4.87;4.10;;;;;;;14.56;67.24;100609.88;5101103;28;20508;-64
2022/06/04 01:22:02;;;;;;;4.83;4.33;;;;;;;14.61;67.08;100615.66;5100327;28;20551;-64
2022/06/04 01:24:54;;;;;;;7.80;4.53;;;;;;;14.62;66.80;100610.13;5100449;28;20451;-63
2022/06/04 01:27:27;;;;;;;5.67;4.20;;;;;;;14.41;67.92;100614.97;5100840;28;20843;-64
2022/06/04 01:30:01;;;;;;;6.17;4.40;;;;;;;14.45;67.94;100616.38;5101833;28;20564;-63
2022/06/04 01:32:32;;;;;;;6.83;4.50;;;;;;;14.52;68.43;100606.66;5099692;28;20919;-63
2022/06/04 01:35:03;;;;;;;5.70;4.73;;;;;;;14.54;68.11;100601.94;5101381;28;20500;-63
2022/06/04 01:37:34;;;;;;;5.60;4.77;;;;;;;14.26;69.18;100612.00;5100713;28;20473;-63
2022/06/04 01:42:49;;;;;;;6.03;4.50;;;;;;;14.42;68.54;100628.25;5101508;28;20458;-64
2022/06/04 01:45:18;;;;;;;4.47;4.00;;;;;;;14.40;68.74;100632.13;5099790;28;20443;-64
2022/06/04 01:47:46;;;;;;;5.20;4.53;;;;;;;14.31;69.17;100631.22;5100383;28;20439;-63
2022/06/04 01:50:15;;;;;;;5.77;5.23;;;;;;;14.04;70.54;100632.97;5100778;28;20500;-63
2022/06/04 01:52:43;;;;;;;6.30;4.80;;;;;;;14.08;69.97;100642.44;5101120;28;20469;-63
2022/06/04 01:55:12;;;;;;;7.40;5.00;;;;;;;14.19;70.04;100657.50;5099825;28;20466;-63
2022/06/04 01:57:42;;;;;;;5.63;5.13;;;;;;;14.10;70.22;100653.06;5100962;28;20442;-63
2022/06/04 02:00:13;;;;;;;13.93;5.47;;;;;;;14.11;70.42;100647.53;5100211;28;20443;-63
2022/06/04 02:02:45;;;;;;;10.90;5.23;;;;;;;13.94;71.13;100648.38;5100207;28;20455;-64
2022/06/04 02:05:17;;;;;;;5.97;5.07;;;;;;;14.13;71.07;100656.28;5100078;28;20698;-63
2022/06/04 02:07:46;;;;;;;6.77;4.77;;;;;;;14.23;70.34;100658.88;5104608;28;20470;-63
2022/06/04 02:10:16;;;;;;;6.37;5.67;;;;;;;14.13;70.58;100658.13;5104854;28;20453;-63
2022/06/04 02:12:46;;;;;;;6.40;5.37;;;;;;;14.28;70.23;100658.41;5104584;28;20447;-64
2022/06/04 02:15:17;;;;;;;5.50;5.00;;;;;;;14.36;69.98;100649.59;5104148;28;20415;-63
2022/06/04 02:17:46;;;;;;;5.53;4.90;;;;;;;14.11;70.27;100647.53;5103766;28;20447;-64
2022/06/04 02:20:14;;;;;;;6.43;5.03;;;;;;;14.10;70.87;100659.25;5104527;28;20495;-63
2022/06/04 02:22:41;;;;;;;6.63;5.90;;;;;;;14.26;70.24;100655.88;5104713;28;20441;-63
2022/06/04 02:25:09;;;;;;;7.40;5.07;;;;;;;14.18;70.52;100653.09;5103515;28;20457;-63
2022/06/04 02:27:36;;;;;;;6.80;5.50;;;;;;;14.08;70.59;100657.75;5104455;28;20450;-63
2022/06/04 02:30:04;;;;;;;5.93;5.20;;;;;;;13.94;70.96;100659.94;5104721;28;20439;-64
2022/06/04 02:32:38;;;;;;;7.00;6.30;;;;;;;13.97;71.40;100668.72;5103082;28;20512;-64
2022/06/04 02:35:09;;;;;;;6.13;5.53;;;;;;;13.97;71.47;100676.78;5104547;28;20450;-63
2022/06/04 02:37:40;;;;;;;7.83;5.70;;;;;;;14.07;71.18;100677.53;5103647;28;20462;-64
2022/06/04 02:40:10;;;;;;;6.53;5.73;;;;;;;14.18;70.70;100677.31;5103470;28;20443;-64
2022/06/04 02:42:41;;;;;;;7.30;5.63;;;;;;;14.28;70.73;100675.38;5104206;28;20439;-64
2022/06/04 02:45:13;;;;;;;6.23;5.33;;;;;;;14.07;70.93;100681.06;5102894;28;20444;-63
2022/06/04 02:47:44;;;;;;;6.03;5.43;;;;;;;14.11;71.18;100682.47;5103339;28;20469;-63
2022/06/04 02:50:15;;;;;;;5.77;5.23;;;;;;;13.96;71.37;100675.94;5103912;28;20461;-63
2022/06/04 02:52:43;;;;;;;5.53;5.03;;;;;;;14.07;71.48;100677.53;5103776;28;20447;-63
2022/06/04 02:55:12;;;;;;;6.30;5.80;;;;;;;13.91;71.90;100681.75;5101639;28;20446;-63
2022/06/04 02:57:41;;;;;;;7.40;6.03;;;;;;;13.93;72.28;100673.53;5103752;28;20450;-63
2022/06/04 03:00:12;;;;;;;6.70;5.40;;;;;;;13.96;71.55;100683.13;5103243;28;20447;-63
2022/06/04 03:02:39;;;;;;;6.90;5.70;;;;;;;13.61;72.82;100672.19;5103491;28;20447;-63
2022/06/04 03:05:11;;;;;;;7.50;6.13;;;;;;;13.71;72.57;100672.13;5103562;28;20489;-63
2022/06/04 03:07:39;;;;;;;9.33;6.10;;;;;;;13.74;72.41;100679.88;5103269;28;20490;-64
2022/06/04 03:10:10;;;;;;;6.20;5.60;;;;;;;13.86;71.82;100680.53;5103152;28;21004;-63
2022/06/04 03:12:37;;;;;;;6.73;6.13;;;;;;;13.60;72.46;100666.97;5103478;28;20462;-63
2022/06/04 03:15:04;;;;;;;6.20;5.27;;;;;;;13.68;71.77;100665.22;5103217;28;20442;-62
2022/06/04 03:17:31;;;;;;;5.93;5.13;;;;;;;13.71;72.17;100656.00;5101565;28;21101;-63
2022/06/04 03:19:57;;;;;;;8.23;6.60;;;;;;;13.58;72.70;100658.22;5103957;28;20438;-63
2022/06/04 03:22:26;;;;;;;6.70;6.10;;;;;;;13.42;72.97;100659.72;5102473;28;20479;-63
2022/06/04 03:24:52;;;;;;;6.20;5.70;;;;;;;13.49;73.03;100659.97;5103006;28;21013;-63
2022/06/04 03:27:19;;;;;;;8.27;7.10;;;;;;;13.51;72.76;100657.97;5102985;28;20552;-62
2022/06/04 03:29:47;;;;;;;6.70;5.53;;;;;;;13.71;72.03;100658.69;5102645;28;20463;-63
2022/06/04 03:32:13;;;;;;;5.43;4.93;;;;;;;13.96;70.91;100658.94;5102746;28;20471;-63
2022/06/04 03:34:40;;;;;;;7.63;4.97;;;;;;;14.07;70.72;100659.56;5102842;28;20491;-63
2022/06/04 03:37:07;;;;;;;6.50;5.80;;;;;;;15.27;66.91;100668.03;5102343;28;20490;-63
2022/06/04 03:39:35;;;;;;;7.33;5.80;;;;;;;16.48;62.41;100670.38;5102432;28;20477;-63
2022/06/04 03:42:02;;;;;;;7.70;6.00;;;;;;;16.32;60.48;100673.09;5103024;28;20944;-63
2022/06/04 03:44:29;;;;;;;6.40;5.00;;;;;;;15.63;62.81;100662.47;5101975;28;20473;-63
2022/06/04 03:46:56;;;;;;;7.07;5.27;;;;;;;15.91;62.02;100663.06;5102044;28;20475;-63
2022/06/04 03:49:23;;;;;;;5.70;4.93;;;;;;;17.01;58.68;100670.88;5102588;28;20455;-64
2022/06/04 03:51:49;;;;;;;5.87;4.83;;;;;;;15.96;61.20;100665.28;5102306;28;20517;-64
2022/06/04 03:54:16;;;;;;;6.90;5.60;;;;;;;16.25;60.36;100656.72;5103102;28;20476;-64
2022/06/04 03:57:37;;;;;;;6.37;4.77;;;;;;;16.87;58.85;100658.03;5101970;28;20483;-64
2022/06/04 03:59:32;;;;;;;4.57;4.17;;;;;;;16.41;59.80;100646.94;5102432;28;20447;-64
2022/06/04 04:02:01;;;;;;;5.50;4.93;;;;;;;15.29;62.63;100659.78;5101785;28;20481;-64
2022/06/04 04:04:28;;;;;;;4.60;4.20;;;;;;;14.72;65.25;100649.53;5102572;28;20459;-64
2022/06/04 04:06:55;;;;;;;5.33;4.53;;;;;;;14.92;64.79;100645.63;5102352;28;20479;-64
2022/06/04 04:09:21;;;;;;;5.40;4.77;;;;;;;14.35;66.12;100642.50;5102081;28;20506;-64
2022/06/04 04:11:49;;;;;;;5.47;4.90;;;;;;;14.39;66.36;100652.81;5102368;28;20536;-64
2022/06/04 04:14:16;;;;;;;5.17;4.67;;;;;;;15.06;64.27;100646.88;5102495;28;20451;-63
2022/06/04 04:16:43;;;;;;;6.73;4.07;;;;;;;16.10;60.88;100658.38;5100879;28;20475;-64
2022/06/04 04:19:09;;;;;;;3.63;3.30;;;;;;;17.20;57.26;100642.56;5101764;28;21048;-63
2022/06/04 04:21:40;;;;;;;5.90;4.17;;;;;;;16.12;59.33;100665.28;5102072;28;21107;-64
2022/06/04 04:24:07;;;;;;;4.50;4.10;;;;;;;17.53;55.38;100666.78;5101957;28;20443;-64
2022/06/04 04:26:34;;;;;;;4.00;3.70;;;;;;;16.86;56.60;100670.72;5102297;28;20467;-64
2022/06/04 04:29:02;;;;;;;4.80;4.27;;;;;;;16.76;56.93;100676.25;5100852;28;20455;-64
2022/06/04 04:31:28;;;;;;;4.87;3.90;;;;;;;16.10;58.42;100667.31;5102004;28;20485;-64
2022/06/04 04:33:55;;;;;;;5.43;4.40;;;;;;;16.88;56.82;100674.06;5101463;28;20447;-64
2022/06/04 04:36:22;;;;;;;4.33;3.67;;;;;;;16.15;58.05;100674.91;5102031;28;20483;-64
2022/06/04 04:38:49;;;;;;;5.40;3.90;;;;;;;16.81;56.90;100672.22;5101365;28;20447;-64
2022/06/04 04:41:16;;;;;;;4.40;3.70;;;;;;;17.70;53.90;100670.25;5101296;28;20470;-63
2022/06/04 04:43:43;;;;;;;5.17;3.93;;;;;;;17.65;53.60;100659.97;5100742;28;20462;-65
2022/06/04 04:46:13;;;;;;;5.70;3.70;;;;;;;17.91;52.62;100668.81;5100361;28;20692;-65
2022/06/04 04:48:40;;;;;;;3.87;3.57;;;;;;;17.13;55.14;100668.59;5101177;28;20451;-66
2022/06/04 04:51:11;;;;;;;4.93;3.80;;;;;;;16.53;56.43;100669.88;5101726;28;20471;-65
2022/06/04 04:53:38;;;;;;;4.57;4.07;;;;;;;16.73;56.63;100652.31;5101112;28;20454;-65
2022/06/04 04:56:06;;;;;;;6.57;4.10;;;;;;;16.62;56.87;100641.84;5100982;28;20483;-65
2022/06/04 04:58:33;;;;;;;4.67;4.27;;;;;;;15.47;60.05;100630.91;5101497;28;20455;-65
2022/06/04 05:00:59;;;;;;;3.90;3.60;;;;;;;16.49;57.61;100642.38;5100578;28;20623;-65
2022/06/04 05:03:27;;;;;;;8.43;4.30;;;;;;;16.34;57.56;100649.47;5101386;28;20462;-65
2022/06/04 05:05:58;;;;;;;5.07;4.00;;;;;;;16.24;57.54;100654.19;5100947;28;20482;-65
2022/06/04 05:08:25;;;;;;;3.87;3.53;;;;;;;17.59;53.87;100655.28;5101575;28;20458;-64
2022/06/04 05:10:51;;;;;;;5.90;3.90;;;;;;;15.95;57.05;100658.19;5100266;28;20529;-64
2022/06/04 05:13:18;;;;;;;4.97;4.10;;;;;;;15.96;56.85;100674.19;5101860;28;20481;-64
2022/06/04 05:15:45;;;;;;;4.90;3.80;;;;;;;15.70;57.92;100676.97;5100060;28;20493;-63
2022/06/04 05:18:12;;;;;;;4.83;3.80;;;;;;;15.75;58.55;100688.13;5100357;28;20522;-64
2022/06/04 05:20:41;;;;;;;5.30;4.10;;;;;;;15.52;59.18;100692.38;5101510;28;20474;-64
2022/06/04 05:23:08;;;;;;;4.10;3.40;;;;;;;15.53;58.77;100699.47;5100952;28;20475;-64
2022/06/04 05:25:34;;;;;;;4.10;3.70;;;;;;;15.52;59.69;100693.25;5101083;28;20470;-64
2022/06/04 05:28:01;;;;;;;4.50;3.63;;;;;;;15.51;59.34;100690.72;5101496;28;20443;-64
2022/06/04 05:30:28;;;;;;;5.50;3.47;;;;;;;15.68;58.70;100697.00;5100622;28;20869;-64
2022/06/04 05:32:54;;;;;;;4.80;3.67;;;;;;;15.13;60.13;100695.56;5099168;28;20929;-64
2022/06/04 05:35:21;;;;;;;4.50;4.10;;;;;;;15.59;59.23;100699.66;5101060;28;20454;-64
2022/06/04 05:37:50;;;;;;;7.20;4.17;;;;;;;15.58;58.48;100689.06;5100171;28;20848;-64
2022/06/04 05:40:16;;;;;;;4.20;3.70;;;;;;;15.82;58.07;100685.63;5102568;28;20546;-63
2022/06/04 05:42:43;;;;;;;3.50;3.20;;;;;;;15.90;58.04;100695.56;5105464;28;20512;-63
2022/06/04 05:45:10;;;;;;;7.33;3.77;;;;;;;16.02;57.60;100696.94;5103902;28;20442;-63
2022/06/04 05:47:37;;;;;;;3.97;3.57;;;;;;;15.84;58.02;100693.56;5103680;28;20455;-63
2022/06/04 05:50:05;;;;;;;6.60;3.83;;;;;;;16.36;56.67;100696.84;5104984;28;20451;-63
2022/06/04 05:52:31;;;;;;;4.50;3.60;;;;;;;17.02;55.22;100704.13;5104235;28;20455;-64
2022/06/04 05:54:59;;;;;;;4.37;3.70;;;;;;;17.56;52.96;100693.47;5101422;28;20481;-64
2022/06/04 05:57:26;;;;;;;4.20;3.67;;;;;;;17.66;52.75;100690.56;5104819;28;20504;-65
2022/06/04 05:59:53;;;;;;;4.87;3.33;;;;;;;17.60;52.37;100696.66;5104411;28;20868;-64
2022/06/04 06:02:20;;;;;;;6.97;3.97;;;;;;;17.81;51.38;100705.03;5104133;28;21215;-65
2022/06/04 06:04:46;;;;;;;6.80;3.20;;;;;;;19.04;47.57;100703.28;5105338;28;20505;-64
2022/06/04 06:07:13;;;;;;;3.53;3.00;;;;;;;17.99;50.21;100707.47;5103486;28;20483;-63
2022/06/04 06:09:40;;;;;;;4.57;3.50;;;;;;;18.38;49.42;100711.13;5104868;28;20507;-65
2022/06/04 06:12:09;;;;;;;4.03;3.47;;;;;;;18.97;47.96;100722.19;5103344;28;20471;-68
2022/06/04 06:14:35;;;;;;;3.60;2.97;;;;;;;19.39;45.81;100730.72;5103550;28;20447;-68
2022/06/04 06:17:02;;;;;;;4.57;3.00;;;;;;;20.87;42.65;100740.38;5104003;28;20540;-65
2022/06/04 06:19:29;;;;;;;3.83;3.43;;;;;;;20.12;44.67;100741.72;5104490;28;20485;-64
2022/06/04 06:21:56;;;;;;;3.80;3.00;;;;;;;21.67;41.69;100742.81;5104424;28;20479;-64
2022/06/04 06:24:22;;;;;;;6.23;3.33;;;;;;;20.12;44.76;100749.84;5104572;28;20570;-66
2022/06/04 06:26:52;;;;;;;3.37;2.60;;;;;;;21.58;41.67;100763.91;5104145;28;20470;-65
2022/06/04 06:29:23;;;;;;;4.50;2.80;;;;;;;21.18;42.41;100768.19;5104130;28;20454;-67
2022/06/04 06:31:50;;;;;;;3.80;3.20;;;;;;;21.22;40.76;100758.63;5103313;28;20541;-66
2022/06/04 06:34:17;;;;;;;3.53;2.70;;;;;;;22.83;39.04;100760.13;5103231;28;20465;-66
2022/06/04 06:36:44;;;;;;;3.83;2.90;;;;;;;23.64;37.35;100773.53;5103075;28;20945;-66
2022/06/04 06:39:13;;;;;;;2.87;2.60;;;;;;;22.14;39.08;100768.34;5102974;28;20457;-67
2022/06/04 06:41:40;;;;;;;3.87;2.97;;;;;;;23.60;36.11;100774.16;5102978;28;20477;-65
2022/06/04 06:44:07;;;;;;;3.60;3.30;;;;;;;21.31;40.65;100776.47;5102522;28;20458;-66
2022/06/04 06:46:37;;;;;;;3.43;3.13;;;;;;;20.79;41.70;100762.25;5102835;28;20503;-65
2022/06/04 06:49:07;;;;;;;4.40;3.07;;;;;;;21.38;39.87;100771.06;5103787;28;20948;-65
2022/06/04 06:51:36;;;;;;;3.53;2.43;;;;;;;21.71;40.28;100768.56;5102457;28;20485;-65
2022/06/04 06:54:04;;;;;;;5.53;2.77;;;;;;;22.75;37.22;100764.72;5103411;28;20454;-66
2022/06/04 06:56:33;;;;;;;2.60;2.40;;;;;;;22.92;37.89;100770.63;5103116;28;20475;-66
2022/06/04 06:59:01;;;;;;;2.87;2.60;;;;;;;21.18;41.27;100765.47;5103242;28;20554;-65
2022/06/04 07:01:28;;;;;;;3.53;2.80;;;;;;;20.85;41.38;100766.91;5103173;28;20475;-65
2022/06/04 07:03:57;;;;;;;3.03;2.73;;;;;;;21.88;38.73;100769.09;5102812;28;20450;-65
2022/06/04 07:06:32;;;;;;;3.83;3.20;;;;;;;21.71;39.77;100779.47;5103352;28;20478;-65
2022/06/04 07:08:59;;;;;;;4.13;2.97;;;;;;;21.39;40.03;100780.94;5102612;28;20466;-65
2022/06/04 07:11:26;;;;;;;4.00;3.17;;;;;;;20.49;41.92;100766.94;5102416;28;20482;-65
2022/06/04 07:13:53;;;;;;;3.40;2.87;;;;;;;21.28;39.42;100768.69;5103170;28;20451;-65
2022/06/04 07:16:20;;;;;;;3.43;2.50;;;;;;;22.80;37.26;100772.28;5102473;28;20463;-65
2022/06/04 07:18:47;;;;;;;3.90;2.97;;;;;;;21.66;39.72;100765.63;5102997;28;20447;-66
2022/06/04 07:21:16;;;;;;;5.57;2.50;;;;;;;21.81;38.96;100774.50;5102184;28;20474;-66
2022/06/04 07:23:42;;;;;;;2.73;2.47;;;;;;;23.56;36.81;100762.81;5103082;28;20450;-66
2022/06/04 07:26:09;;;;;;;3.80;2.97;;;;;;;24.91;34.23;100755.63;5102511;28;20478;-66
2022/06/04 07:28:37;;;;;;;3.10;2.77;;;;;;;24.37;34.91;100755.16;5103659;28;20447;-64
2022/06/04 07:31:05;;;;;;;2.93;2.40;;;;;;;23.85;34.91;100757.91;5102758;28;20470;-64
2022/06/04 07:33:32;;;;;;;3.70;2.83;;;;;;;22.22;37.69;100764.63;5101950;28;20481;-65
2022/06/04 07:36:00;;;;;;;7.70;3.40;;;;;;;21.57;39.10;100761.38;5098861;28;20499;-64
2022/06/04 07:38:28;;;;;;;2.93;2.70;;;;;;;23.12;36.53;100753.44;5103039;28;20487;-64
2022/06/04 07:40:55;;;;;;;3.67;3.03;;;;;;;23.68;36.05;100752.09;5102693;28;20475;-65
2022/06/04 07:43:22;;;;;;;3.70;2.67;;;;;;;23.80;36.37;100749.50;5103164;28;20450;-64
2022/06/04 07:45:49;;;;;;;2.80;2.60;;;;;;;24.86;34.04;100752.72;5101534;28;20471;-64
2022/06/04 07:48:16;;;;;;;3.33;2.83;;;;;;;24.09;35.52;100753.63;5102462;28;20852;-64
2022/06/04 07:50:43;;;;;;;3.33;2.77;;;;;;;24.58;34.62;100754.84;5102707;28;20470;-65
2022/06/04 07:53:10;;;;;;;4.97;2.23;;;;;;;22.66;38.13;100754.25;5103088;28;20451;-64
2022/06/04 07:55:42;;;;;;;3.13;2.80;;;;;;;23.19;36.99;100756.16;5102406;28;20461;-64
2022/06/04 07:58:10;;;;;;;4.40;2.90;;;;;;;21.45;40.69;100764.63;5102458;28;20552;-65
2022/06/04 08:00:38;;;;;;;3.40;3.10;;;;;;;20.53;42.50;100760.09;5098035;28;20471;-66
2022/06/04 08:03:06;;;;;;;3.90;3.10;;;;;;;20.65;42.28;100760.44;5101599;28;20465;-66
2022/06/04 08:05:33;;;;;;;3.67;3.17;;;;;;;21.20;41.24;100766.97;5094819;28;20500;-65
2022/06/04 08:08:00;;;;;;;3.00;2.50;;;;;;;22.17;39.16;100767.13;5066304;28;20464;-65
2022/06/04 08:10:26;;;;;;;3.00;2.80;;;;;;;23.80;37.10;100766.75;5080273;28;20569;-66
2022/06/04 08:12:55;;;;;;;3.73;3.03;;;;;;;23.73;36.65;100765.06;5090174;28;20448;-63
2022/06/04 08:15:22;;;;;;;3.70;3.30;;;;;;;23.71;36.32;100765.28;5061997;28;20520;-65
2022/06/04 08:17:49;;;;;;;3.73;3.20;;;;;;;23.27;37.08;100772.31;5069871;28;20976;-67
2022/06/04 08:20:17;;;;;;;3.30;2.70;;;;;;;24.87;33.60;100777.13;5080411;28;20513;-72
2022/06/04 08:22:44;;;;;;;5.30;2.77;;;;;;;24.36;35.12;100767.16;5073244;28;20570;-66
2022/06/04 08:25:11;;;;;;;6.63;2.83;;;;;;;25.34;33.96;100772.09;5066359;28;20457;-65
2022/06/04 08:27:38;;;;;;;9.13;3.60;;;;;;;24.63;34.67;100776.03;5069234;28;20448;-65
2022/06/04 08:30:07;;;;;;;4.53;3.33;;;;;;;22.50;38.14;100774.56;5066849;28;20721;-65
2022/06/04 08:32:34;;;;;;;2.63;2.40;;;;;;;23.63;36.98;100777.28;5074046;28;20494;-64
2022/06/04 08:35:01;;;;;;;3.60;2.57;;;;;;;24.10;35.01;100781.78;5070996;28;20452;-64
2022/06/04 08:37:28;;;;;;;2.50;2.30;;;;;;;24.98;34.01;100770.94;5064955;28;21065;-65
2022/06/04 08:39:54;;;;;;;2.80;2.50;;;;;;;24.90;33.37;100776.69;5085727;28;20465;-64
2022/06/04 08:42:44;;;;;;;5.53;3.23;;;;;;;23.22;36.77;100780.28;5099756;28;20479;-65
2022/06/04 08:45:13;;;;;;;4.30;3.03;;;;;;;22.96;37.09;100781.13;5070051;28;20459;-63
2022/06/04 08:47:44;;;;;;;3.37;2.40;;;;;;;23.64;36.16;100789.03;5079205;28;20447;-65
2022/06/04 08:50:16;;;;;;;3.97;2.77;;;;;;;23.90;35.70;100790.03;5078348;28;20520;-64
2022/06/04 08:52:45;;;;;;;5.13;2.57;;;;;;;23.92;34.88;100788.75;5068432;28;20522;-65
2022/06/04 08:58:09;;;;;;;6.97;2.57;;;;;;;24.65;34.80;100801.28;5074979;28;20506;-64
2022/06/04 09:00:43;;;;;;;6.23;2.40;;;;;;;26.74;32.29;100798.88;5083561;28;20462;-64
2022/06/04 09:03:13;;;;;;;4.23;2.40;;;;;;;24.35;35.65;100803.72;5083548;28;20453;-65
2022/06/04 09:06:01;;;;;;;2.70;2.50;;;;;;;24.59;34.72;100805.72;5099471;28;20467;-65
2022/06/04 09:08:37;;;;;;;3.47;2.27;;;;;;;25.25;33.28;100809.03;5099987;28;20486;-65
2022/06/04 09:11:10;;;;;;;6.27;2.77;;;;;;;27.11;30.95;100806.94;5097941;28;20511;-65
2022/06/04 09:13:42;;;;;;;3.30;2.57;;;;;;;25.78;32.04;100820.50;5109234;28;20438;-65
2022/06/04 09:16:19;;;;;;;3.00;2.20;;;;;;;24.18;35.86;100806.97;5114245;28;20471;-65
2022/06/04 09:18:49;;;;;;;3.40;2.20;;;;;;;25.85;33.16;100815.78;5099238;28;20491;-65
2022/06/04 09:21:16;;;;;;;3.50;2.30;;;;;;;25.56;33.49;100810.00;5093177;28;20479;-65
2022/06/04 09:23:46;;;;;;;3.43;2.43;;;;;;;23.59;36.64;100808.81;5079790;28;20454;-64
2022/06/04 09:26:24;;;;;;;2.97;2.73;;;;;;;24.12;36.54;100805.09;5085445;28;20466;-65
2022/06/04 09:28:58;;;;;;;7.03;3.20;;;;;;;23.02;37.45;100804.81;5098694;28;20457;-65
2022/06/04 09:31:33;;;;;;;3.40;2.33;;;;;;;23.93;35.81;100792.34;5098895;28;20474;-65
2022/06/04 09:34:03;;;;;;;3.50;2.90;;;;;;;25.41;34.17;100799.41;5099009;28;20473;-65
2022/06/04 09:36:32;;;;;;;5.37;2.97;;;;;;;25.54;34.69;100799.28;5098695;28;20470;-65
2022/06/04 09:39:01;;;;;;;2.77;2.40;;;;;;;25.35;34.01;100795.69;5099209;28;20926;-65
2022/06/04 09:41:30;;;;;;;3.90;2.70;;;;;;;24.83;34.98;100800.50;5098920;28;20524;-65
2022/06/04 09:44:07;;;;;;;5.17;2.57;;;;;;;27.02;32.43;100798.22;5098869;28;20431;-65
2022/06/04 09:46:36;;;;;;;4.70;2.90;;;;;;;25.40;34.96;100811.44;5098372;28;20482;-65
2022/06/04 09:49:13;;;;;;;7.03;2.80;;;;;;;26.97;31.83;100795.34;5097739;28;20524;-65
2022/06/04 09:51:43;;;;;;;3.17;2.87;;;;;;;26.70;32.23;100812.25;5098438;28;20496;-65
2022/06/04 09:54:22;;;;;;;3.50;3.07;;;;;;;23.92;36.55;100807.06;5094446;28;20439;-65
2022/06/04 09:56:53;;;;;;;3.70;2.77;;;;;;;25.08;35.22;100808.72;5095039;28;20474;-65
2022/06/04 09:59:24;;;;;;;3.10;2.40;;;;;;;26.46;34.10;100803.06;5093773;28;20484;-65
2022/06/04 10:01:56;;;;;;;3.90;2.70;;;;;;;27.26;32.03;100814.72;5097359;28;20482;-65
2022/06/04 10:04:24;;;;;;;4.20;2.53;;;;;;;27.38;30.90;100812.84;5079953;28;20464;-65
2022/06/04 10:06:51;;;;;;;4.70;2.90;;;;;;;27.98;28.98;100809.81;5094583;28;20887;-65
2022/06/04 10:12:08;;;;;;;3.20;2.90;;;;;;;25.26;34.38;100818.94;5096418;28;20493;-65
2022/06/04 10:14:37;;;;;;;3.73;2.90;;;;;;;25.54;35.63;100814.88;5097414;28;20508;-65
2022/06/04 10:17:06;;;;;;;4.03;2.57;;;;;;;26.43;35.15;100811.75;5097128;28;20467;-65
2022/06/04 10:19:34;;;;;;;3.40;3.10;;;;;;;26.17;33.07;100813.75;5097252;28;20482;-65
2022/06/04 10:22:10;;;;;;;9.03;3.03;;;;;;;26.67;32.76;100815.44;5097305;28;20505;-65
2022/06/04 10:24:42;;;;;;;4.30;3.07;;;;;;;25.09;35.95;100821.34;5096154;28;20455;-65
2022/06/04 10:27:22;;;;;;;3.90;2.97;;;;;;;25.72;35.20;100820.34;5091760;28;20724;-65
2022/06/04 10:30:10;;;;;;;4.73;2.97;;;;;;;25.63;34.77;100826.38;5083469;28;20450;-65
2022/06/04 10:32:48;;;;;;;3.20;2.83;;;;;;;25.58;35.77;100824.31;5098685;28;20463;-65
2022/06/04 10:35:20;;;;;;;4.30;2.90;;;;;;;25.98;34.17;100818.41;5100068;28;20464;-65
2022/06/04 10:37:56;;;;;;;3.20;2.90;;;;;;;25.02;37.25;100817.84;5100054;28;20505;-65
2022/06/04 10:40:39;;;;;;;3.30;3.00;;;;;;;24.41;38.46;100819.25;5098262;28;20450;-65
2022/06/04 10:43:17;;;;;;;4.53;3.03;;;;;;;24.87;35.92;100820.88;5099966;28;20451;-65
2022/06/04 10:45:47;;;;;;;5.20;3.17;;;;;;;24.94;36.72;100823.56;5098217;28;20489;-65
2022/06/04 10:48:23;;;;;;;3.50;2.50;;;;;;;24.97;37.15;100821.22;5101326;28;20443;-65
2022/06/04 10:53:48;;;;;;;3.87;3.30;;;;;;;26.24;36.15;100830.97;5100768;28;20430;-65
2022/06/04 10:56:18;;;;;;;2.97;2.70;;;;;;;26.07;35.72;100821.69;5099944;28;20466;-66
2022/06/04 10:58:51;;;;;;;2.87;2.67;;;;;;;26.70;34.59;100814.97;5101577;28;20482;-65
2022/06/04 11:01:23;;;;;;;3.90;3.30;;;;;;;26.74;34.19;100827.16;5100703;28;20470;-65
2022/06/04 11:03:57;;;;;;;4.10;3.67;;;;;;;24.91;38.29;100815.81;5101085;28;20477;-65
2022/06/04 11:06:27;;;;;;;4.80;3.40;;;;;;;25.11;36.75;100821.97;5098772;28;20490;-65
2022/06/04 11:08:58;;;;;;;5.50;4.13;;;;;;;24.98;38.08;100824.78;5100773;28;20443;-65
2022/06/04 11:11:30;;;;;;;3.73;2.43;;;;;;;26.97;35.79;100815.38;5100463;28;20537;-66
2022/06/04 11:14:01;;;;;;;3.47;3.17;;;;;;;26.96;34.78;100816.47;5100194;28;20478;-65
2022/06/04 11:16:33;;;;;;;3.10;2.80;;;;;;;26.26;36.84;100817.84;5099628;28;20475;-65
2022/06/04 11:19:06;;;;;;;4.20;3.80;;;;;;;25.93;36.22;100816.31;5098670;28;20592;-65
2022/06/04 11:21:36;;;;;;;5.43;3.67;;;;;;;25.27;37.53;100819.75;5112375;28;20993;-65
2022/06/04 11:24:09;;;;;;;4.80;3.33;;;;;;;25.68;36.29;100821.06;5108679;28;20443;-65
2022/06/04 11:26:39;;;;;;;6.20;3.30;;;;;;;25.70;36.77;100819.75;5100463;28;20479;-65
2022/06/04 11:29:06;;;;;;;4.07;3.47;;;;;;;25.42;38.50;100827.63;5102545;28;20478;-65
2022/06/04 11:31:51;;;;;;;4.20;3.50;;;;;;;25.09;38.11;100829.56;5101830;28;20471;-65
2022/06/04 11:34:58;;;;;;;7.33;4.00;;;;;;;24.77;38.85;100809.59;5100208;28;20480;-65
2022/06/04 11:37:36;;;;;;;8.97;4.23;;;;;;;23.91;40.22;100813.59;5098974;28;20605;-65
2022/06/04 11:40:17;;;;;;;4.17;3.80;;;;;;;24.05;40.77;100812.47;5101810;28;20504;-65
2022/06/04 11:42:54;;;;;;;4.17;3.77;;;;;;;24.03;41.49;100800.94;5102253;28;20447;-65
2022/06/04 11:45:37;;;;;;;4.97;3.70;;;;;;;24.40;40.36;100809.38;5099836;28;20980;-65
2022/06/04 11:48:12;;;;;;;4.70;3.73;;;;;;;24.05;41.08;100812.47;5100953;28;20471;-65
2022/06/04 11:50:46;;;;;;;6.90;3.87;;;;;;;24.13;40.78;100814.13;5101599;28;20462;-65
2022/06/04 11:53:23;;;;;;;3.50;3.20;;;;;;;23.98;41.69;100809.75;5099907;28;20838;-65
2022/06/04 11:55:54;;;;;;;5.90;3.40;;;;;;;23.75;42.11;100807.50;5100071;28;20475;-64